createdAt,value
2023-12-12T00:01:29.479Z,6.86
2023-12-12T00:03:57.022Z,6.90
2023-12-12T00:06:26.134Z,6.96
2023-12-12T00:08:53.280Z,6.93
2023-12-12T00:11:21.162Z,7.02
2023-12-12T00:13:48.883Z,6.98
2023-12-12T00:16:18.958Z,7.09
2023-12-12T00:18:46.241Z,7.03
2023-12-12T00:21:14.464Z,7.01
2023-12-12T00:23:41.918Z,7.04
2023-12-12T00:26:14.408Z,7.00
2023-12-12T00:28:42.111Z,6.98
2023-12-12T00:31:09.802Z,6.95
2023-12-12T00:33:36.857Z,7.00
2023-12-12T00:36:04.876Z,7.05
2023-12-12T00:38:35.060Z,7.09
2023-12-12T00:41:02.176Z,7.10
2023-12-12T00:43:29.381Z,7.16
2023-12-12T00:45:57.777Z,7.13
2023-12-12T00:48:27.970Z,7.17
2023-12-12T00:50:55.128Z,7.08
2023-12-12T00:53:22.085Z,7.12
2023-12-12T00:55:49.080Z,7.13
2023-12-12T00:58:16.286Z,7.07
2023-12-12T01:00:45.738Z,7.14
2023-12-12T01:03:12.793Z,7.20
2023-12-12T01:05:39.926Z,7.21
2023-12-12T01:08:07.245Z,7.17
2023-12-12T01:10:37.842Z,7.13
2023-12-12T01:13:05.727Z,7.18
2023-12-12T01:15:32.853Z,7.18
2023-12-12T01:18:07.913Z,7.24
2023-12-12T01:20:35.567Z,7.22
2023-12-12T01:23:02.558Z,7.25
2023-12-12T01:25:32.970Z,7.25
2023-12-12T01:28:00.989Z,7.19
2023-12-12T01:30:27.997Z,7.10
2023-12-12T01:32:55.368Z,7.21
2023-12-12T01:35:25.365Z,7.26
2023-12-12T01:37:55.433Z,7.22
2023-12-12T01:40:23.881Z,7.28
2023-12-12T01:42:51.734Z,7.29
2023-12-12T01:45:19.958Z,7.27
2023-12-12T01:47:48.401Z,7.17
2023-12-12T01:50:16.189Z,7.21
2023-12-12T01:52:44.022Z,7.21
2023-12-12T01:55:14.290Z,7.19
2023-12-12T01:57:41.907Z,7.21
2023-12-12T02:00:10.420Z,7.22
2023-12-12T02:02:40.247Z,7.25
2023-12-12T02:05:10.866Z,7.32
2023-12-12T02:07:38.574Z,7.32
2023-12-12T02:10:05.922Z,7.34
2023-12-12T02:12:34.207Z,7.31
2023-12-12T02:15:01.374Z,7.32
2023-12-12T02:17:28.594Z,7.29
2023-12-12T02:19:56.145Z,7.34
2023-12-12T02:22:23.328Z,7.34
2023-12-12T02:24:50.496Z,7.39
2023-12-12T02:27:18.323Z,7.39
2023-12-12T02:29:45.465Z,7.39
2023-12-12T02:32:15.621Z,7.35
2023-12-12T02:34:42.947Z,7.41
2023-12-12T02:37:10.359Z,7.48
2023-12-12T02:39:43.316Z,7.47
2023-12-12T02:42:10.372Z,7.45
2023-12-12T02:44:37.423Z,7.49
2023-12-12T02:47:04.600Z,7.41
2023-12-12T02:49:31.871Z,7.41
2023-12-12T02:51:59.473Z,7.33
2023-12-12T02:54:26.789Z,7.29
2023-12-12T02:56:53.958Z,7.28
2023-12-12T02:59:20.977Z,7.27
2023-12-12T03:01:51.544Z,7.18
2023-12-12T03:04:18.831Z,7.12
2023-12-12T03:06:46.026Z,7.11
2023-12-12T03:09:19.884Z,7.13
2023-12-12T03:11:47.225Z,7.10
2023-12-12T03:14:14.280Z,7.06
2023-12-12T03:16:41.752Z,7.11
2023-12-12T03:19:09.579Z,7.08
2023-12-12T03:21:36.786Z,7.08
2023-12-12T03:24:04.140Z,7.12
2023-12-12T03:26:31.147Z,7.05
2023-12-12T03:28:59.375Z,7.01
2023-12-12T03:31:26.609Z,7.03
2023-12-12T03:33:56.296Z,7.07
2023-12-12T03:36:34.430Z,6.99
2023-12-12T03:39:11.839Z,7.03
2023-12-12T03:41:42.284Z,6.98
2023-12-12T03:44:15.080Z,7.03
2023-12-12T03:46:43.124Z,6.98
2023-12-12T03:49:10.693Z,6.96
2023-12-12T03:51:41.976Z,6.92
2023-12-12T03:54:13.270Z,6.98
2023-12-12T03:56:40.609Z,6.92
2023-12-12T03:59:08.472Z,6.94
2023-12-12T04:01:36.004Z,6.91
2023-12-12T04:04:03.351Z,6.85
2023-12-12T04:06:39.080Z,6.92
2023-12-12T04:09:06.172Z,6.91
2023-12-12T04:11:36.316Z,6.94
2023-12-12T04:14:03.530Z,6.96
2023-12-12T04:16:36.664Z,7.04
2023-12-12T04:19:07.045Z,7.01
2023-12-12T04:21:34.104Z,7.00
2023-12-12T04:24:04.450Z,7.05
2023-12-12T04:26:31.506Z,7.00
2023-12-12T04:29:02.128Z,7.00
2023-12-12T04:31:32.419Z,7.06
2023-12-12T04:33:59.827Z,7.08
2023-12-12T04:36:29.556Z,7.07
2023-12-12T04:39:02.554Z,7.02
2023-12-12T04:41:32.707Z,7.01
2023-12-12T04:43:59.815Z,7.02
2023-12-12T04:46:26.893Z,6.94
2023-12-12T04:48:54.283Z,6.87
2023-12-12T04:51:21.418Z,6.96
2023-12-12T04:53:53.379Z,6.95
2023-12-12T04:56:20.607Z,6.97
2023-12-12T04:58:50.991Z,6.95
2023-12-12T05:01:18.464Z,6.90
2023-12-12T05:03:57.249Z,7.02
2023-12-12T05:06:25.147Z,6.93
2023-12-12T05:08:52.539Z,6.87
2023-12-12T05:11:25.929Z,6.86
2023-12-12T05:13:54.555Z,6.81
2023-12-12T05:16:31.044Z,6.87
2023-12-12T05:19:06.438Z,6.85
2023-12-12T05:21:34.258Z,6.91
2023-12-12T05:24:41.053Z,6.90
2023-12-12T05:27:32.602Z,6.98
2023-12-12T05:30:20.638Z,6.94
2023-12-12T05:32:48.107Z,6.89
2023-12-12T05:35:18.443Z,6.87
2023-12-12T05:37:48.772Z,6.98
2023-12-12T05:40:18.831Z,6.96
2023-12-12T05:42:46.083Z,6.82
2023-12-12T05:45:16.559Z,6.79
2023-12-12T05:48:04.725Z,6.80
2023-12-12T05:50:37.393Z,6.87
2023-12-12T05:53:09.541Z,6.81
2023-12-12T05:55:42.085Z,6.89
2023-12-12T05:58:12.422Z,6.85
2023-12-12T06:00:46.012Z,6.82
2023-12-12T06:03:19.623Z,6.82
2023-12-12T06:05:47.032Z,6.83
2023-12-12T06:08:37.153Z,6.85
2023-12-12T06:11:04.844Z,6.84
2023-12-12T06:13:57.638Z,6.78
2023-12-12T06:16:39.861Z,6.76
2023-12-12T06:19:22.425Z,6.75
2023-12-12T06:21:54.818Z,6.68
2023-12-12T06:24:24.942Z,6.73
2023-12-12T06:27:01.611Z,6.73
2023-12-12T06:29:29.150Z,6.80
2023-12-12T06:32:07.229Z,6.79
2023-12-12T06:34:40.936Z,6.79
2023-12-12T06:37:09.095Z,6.80
2023-12-12T06:39:40.354Z,6.76
2023-12-12T06:42:26.530Z,6.87
2023-12-12T06:45:02.701Z,6.81
2023-12-12T06:47:29.972Z,6.81
2023-12-12T06:50:00.721Z,6.81
2023-12-12T06:52:28.169Z,6.83
2023-12-12T06:55:20.329Z,6.73
2023-12-12T06:57:47.300Z,6.76
2023-12-12T07:00:15.900Z,6.75
2023-12-12T07:08:47.203Z,6.87
2023-12-12T07:11:17.008Z,6.81
2023-12-12T07:13:46.878Z,6.64
2023-12-12T07:16:17.224Z,6.75
2023-12-12T07:18:44.617Z,6.76
2023-12-12T07:21:16.496Z,6.78
2023-12-12T07:23:57.004Z,6.77
2023-12-12T07:26:26.024Z,6.77
2023-12-12T07:28:59.628Z,6.70
2023-12-12T07:31:34.237Z,6.70
2023-12-12T07:34:04.309Z,6.73
2023-12-12T07:36:35.224Z,6.67
2023-12-12T07:39:06.954Z,6.65
2023-12-12T07:41:33.965Z,6.72
2023-12-12T07:44:13.604Z,6.74
2023-12-12T07:46:47.922Z,6.80
2023-12-12T07:49:16.386Z,6.77
2023-12-12T07:51:49.117Z,6.81
2023-12-12T07:54:16.087Z,6.78
2023-12-12T07:56:49.243Z,6.90
2023-12-12T07:59:19.524Z,6.90
2023-12-12T08:01:46.883Z,6.80
2023-12-12T08:04:14.544Z,6.82
2023-12-12T08:06:45.122Z,6.85
2023-12-12T08:09:12.036Z,6.85
2023-12-12T08:11:39.775Z,6.88
2023-12-12T08:14:07.425Z,6.92
2023-12-12T08:16:34.468Z,7.02
2023-12-12T08:19:02.791Z,6.92
2023-12-12T08:21:31.621Z,6.89
2023-12-12T08:24:05.074Z,6.94
2023-12-12T08:26:32.253Z,7.01
2023-12-12T08:29:05.291Z,6.98
2023-12-12T08:32:02.051Z,7.01
2023-12-12T08:34:31.418Z,7.04
2023-12-12T08:37:09.387Z,7.14
2023-12-12T08:42:29.015Z,7.18
2023-12-12T08:45:03.166Z,7.20
2023-12-12T08:47:36.553Z,7.25
2023-12-12T08:50:11.183Z,7.25
2023-12-12T08:52:38.538Z,7.35
2023-12-12T08:55:10.074Z,7.36
2023-12-12T08:57:41.362Z,7.32
2023-12-12T09:00:10.323Z,7.35
2023-12-12T09:02:41.651Z,7.41
2023-12-12T09:05:12.274Z,7.42
2023-12-12T09:07:39.244Z,7.45
2023-12-12T09:10:08.044Z,7.49
2023-12-12T09:12:35.968Z,7.51
2023-12-12T09:15:03.738Z,7.59
2023-12-12T09:17:42.459Z,7.59
2023-12-12T09:20:29.731Z,7.65
2023-12-12T09:23:11.639Z,7.73
2023-12-12T09:26:02.746Z,7.73
2023-12-12T09:28:33.237Z,7.79
2023-12-12T09:31:00.559Z,7.86
2023-12-12T09:33:27.753Z,7.92
2023-12-12T09:35:54.945Z,7.99
2023-12-12T09:38:21.982Z,8.02
2023-12-12T09:40:57.714Z,8.06
2023-12-12T09:43:28.649Z,8.12
2023-12-12T09:45:59.606Z,8.12
2023-12-12T09:48:30.235Z,8.18
2023-12-12T09:51:00.923Z,8.26
2023-12-12T09:53:32.139Z,8.27
2023-12-12T09:56:04.748Z,8.26
2023-12-12T09:58:32.305Z,8.35
2023-12-12T10:01:02.231Z,8.47
2023-12-12T10:03:34.542Z,8.59
2023-12-12T10:06:05.529Z,8.60
2023-12-12T10:08:32.766Z,8.63
2023-12-12T10:11:00.177Z,8.68
2023-12-12T10:13:27.716Z,8.68
2023-12-12T10:15:58.759Z,8.70
2023-12-12T10:18:26.608Z,8.78
2023-12-12T10:20:53.840Z,8.79
2023-12-12T10:23:30.974Z,8.86
2023-12-12T10:26:02.229Z,8.82
2023-12-12T10:28:34.506Z,8.86
2023-12-12T10:31:21.463Z,8.89
2023-12-12T10:33:55.413Z,9.02
2023-12-12T10:36:38.177Z,8.99
2023-12-12T10:39:16.582Z,9.00
2023-12-12T10:41:56.886Z,9.08
2023-12-12T10:44:36.670Z,9.03
2023-12-12T10:47:14.176Z,9.13
2023-12-12T10:49:48.655Z,9.17
2023-12-12T10:52:24.794Z,9.20
2023-12-12T10:54:54.765Z,9.23
2023-12-12T11:00:38.219Z,9.32
2023-12-12T11:03:08.723Z,9.36
2023-12-12T11:05:35.715Z,9.42
2023-12-12T11:08:06.489Z,9.49
2023-12-12T11:13:41.331Z,9.64
2023-12-12T11:16:09.830Z,9.69
2023-12-12T11:25:12.524Z,9.78
2023-12-12T11:27:41.682Z,9.74
2023-12-12T11:30:09.615Z,9.74
2023-12-12T11:32:52.228Z,9.83
2023-12-12T11:35:40.786Z,9.88
2023-12-12T11:38:32.263Z,9.89
2023-12-12T11:41:15.355Z,9.94
2023-12-12T11:43:55.444Z,9.97
2023-12-12T11:46:48.295Z,10.02
2023-12-12T11:49:58.515Z,9.98
2023-12-12T11:52:40.928Z,9.98
2023-12-12T11:55:09.664Z,10.08
2023-12-12T11:57:56.611Z,10.03
2023-12-12T12:00:27.283Z,9.99
2023-12-12T12:02:54.749Z,10.12
2023-12-12T12:05:25.652Z,10.09
2023-12-12T12:07:59.448Z,10.12
2023-12-12T12:10:29.274Z,10.14
2023-12-12T12:12:59.229Z,10.16
2023-12-12T12:15:28.436Z,10.14
2023-12-12T12:18:01.488Z,10.10
2023-12-12T12:20:28.590Z,10.15
2023-12-12T12:22:55.862Z,10.12
2023-12-12T12:28:07.410Z,10.25
2023-12-12T12:30:46.180Z,10.11
2023-12-12T12:33:15.204Z,10.23
2023-12-12T12:35:53.057Z,10.24
2023-12-12T12:38:34.553Z,10.15
2023-12-12T12:42:24.516Z,10.28
2023-12-12T12:44:55.981Z,10.26
2023-12-12T12:47:22.976Z,10.30
2023-12-12T12:49:57.154Z,10.31
2023-12-12T12:52:24.125Z,10.24
2023-12-12T12:54:52.067Z,10.23
2023-12-12T12:57:19.536Z,10.35
2023-12-12T12:59:46.847Z,10.30
2023-12-12T13:02:13.948Z,10.24
2023-12-12T13:04:44.414Z,10.22
2023-12-12T13:07:16.238Z,10.17
2023-12-12T13:09:44.574Z,10.25
2023-12-12T13:12:11.970Z,10.19
2023-12-12T13:14:39.161Z,10.23
2023-12-12T13:17:13.069Z,10.18
2023-12-12T13:19:43.237Z,10.18
2023-12-12T13:22:13.598Z,10.10
2023-12-12T13:24:41.117Z,10.10
2023-12-12T13:27:08.043Z,10.05
2023-12-12T13:29:38.618Z,10.10
2023-12-12T13:32:06.309Z,10.10
2023-12-12T13:34:36.210Z,10.05
2023-12-12T13:37:22.517Z,10.00
2023-12-12T13:40:04.418Z,10.03
2023-12-12T13:42:34.938Z,10.02
2023-12-12T13:45:21.601Z,10.04
2023-12-12T13:47:53.175Z,10.06
2023-12-12T13:50:20.672Z,10.09
2023-12-12T13:52:47.574Z,10.07
2023-12-12T13:55:16.623Z,10.08
2023-12-12T13:57:46.591Z,10.05
2023-12-12T14:00:28.685Z,10.04
2023-12-12T14:02:55.846Z,10.07
2023-12-12T14:05:30.277Z,10.01
2023-12-12T14:08:07.918Z,9.99
2023-12-12T14:10:39.059Z,10.00
2023-12-12T14:13:35.795Z,9.98
2023-12-12T14:16:05.745Z,9.92
2023-12-12T14:18:34.413Z,9.87
2023-12-12T14:21:01.554Z,9.84
2023-12-12T14:24:10.081Z,9.78
2023-12-12T14:26:47.022Z,9.77
2023-12-12T14:29:20.641Z,9.79
2023-12-12T14:31:52.914Z,9.73
2023-12-12T14:34:28.998Z,9.62
2023-12-12T14:37:04.050Z,9.61
2023-12-12T14:39:33.439Z,9.55
2023-12-12T14:45:22.754Z,9.39
2023-12-12T14:48:15.983Z,9.40
2023-12-12T14:51:06.286Z,9.37
2023-12-12T14:53:33.121Z,9.27
2023-12-12T14:56:00.244Z,9.21
2023-12-12T14:58:27.560Z,9.18
2023-12-12T15:00:55.168Z,9.17
2023-12-12T15:03:24.610Z,9.11
2023-12-12T15:05:54.260Z,9.23
2023-12-12T15:08:25.641Z,9.19
2023-12-12T15:11:08.256Z,9.15
2023-12-12T15:13:44.392Z,9.13
2023-12-12T15:16:12.900Z,9.12
2023-12-12T15:18:40.604Z,9.09
2023-12-12T15:21:13.593Z,9.18
2023-12-12T15:23:50.523Z,9.08
2023-12-12T15:26:17.732Z,9.09
2023-12-12T15:28:45.570Z,9.13
2023-12-12T15:31:12.804Z,9.06
2023-12-12T15:33:42.441Z,9.02
2023-12-12T15:36:10.208Z,9.06
2023-12-12T15:38:37.855Z,9.08
2023-12-12T15:41:06.790Z,9.05
2023-12-12T15:43:46.488Z,9.09
2023-12-12T15:46:19.989Z,9.10
2023-12-12T15:48:47.628Z,9.11
2023-12-12T15:51:17.277Z,9.16
2023-12-12T15:53:44.935Z,9.15
2023-12-12T15:56:13.138Z,9.19
2023-12-12T15:58:43.534Z,9.07
2023-12-12T16:01:14.389Z,9.03
2023-12-12T16:03:44.641Z,8.91
2023-12-12T16:06:12.126Z,8.96
2023-12-12T16:08:40.562Z,8.97
2023-12-12T16:11:07.893Z,8.97
2023-12-12T16:16:19.513Z,9.06
2023-12-12T16:18:48.984Z,9.10
2023-12-12T16:21:16.216Z,9.03
2023-12-12T16:23:46.353Z,8.90
2023-12-12T16:26:22.466Z,9.01
2023-12-12T16:28:50.105Z,9.06
2023-12-12T16:31:20.414Z,9.09
2023-12-12T16:33:47.806Z,9.03
2023-12-12T16:36:15.083Z,9.10
2023-12-12T16:38:44.663Z,9.05
2023-12-12T16:41:14.054Z,9.02
2023-12-12T16:43:41.160Z,9.04
2023-12-12T16:46:08.238Z,9.07
2023-12-12T16:48:35.636Z,9.07
2023-12-12T16:51:04.610Z,9.10
2023-12-12T16:53:35.899Z,9.10
2023-12-12T16:56:10.115Z,9.06
2023-12-12T16:58:37.897Z,8.99
2023-12-12T17:01:06.116Z,9.01
2023-12-12T17:03:33.931Z,8.98
2023-12-12T17:06:05.022Z,9.03
2023-12-12T17:08:35.260Z,8.99
2023-12-12T17:11:11.652Z,8.97
2023-12-12T17:13:53.599Z,8.99
2023-12-12T17:16:32.025Z,8.96
2023-12-12T17:19:03.153Z,8.97
2023-12-12T17:21:30.296Z,8.96
2023-12-12T17:23:57.952Z,9.01
2023-12-12T17:26:25.840Z,9.02
2023-12-12T17:28:53.497Z,9.02
2023-12-12T17:31:26.554Z,9.05
2023-12-12T17:34:02.972Z,9.03
2023-12-12T17:36:31.548Z,9.03
2023-12-12T17:38:58.529Z,9.00
2023-12-12T17:41:28.846Z,9.06
2023-12-12T17:43:56.194Z,9.06
2023-12-12T17:46:25.935Z,9.04
2023-12-12T17:48:59.530Z,9.05
2023-12-12T17:51:26.631Z,9.04
2023-12-12T17:53:53.902Z,9.02
2023-12-12T17:56:22.701Z,8.97
2023-12-12T17:58:54.026Z,8.95
2023-12-12T18:01:21.432Z,8.97
2023-12-12T18:03:51.208Z,8.90
2023-12-12T18:06:32.459Z,8.91
2023-12-12T18:09:00.275Z,8.82
2023-12-12T18:11:57.744Z,8.89
2023-12-12T18:14:29.329Z,8.78
2023-12-12T18:16:57.251Z,8.87
2023-12-12T18:19:30.938Z,8.83
2023-12-12T18:21:58.739Z,8.82
2023-12-12T18:24:34.791Z,8.84
2023-12-12T18:27:10.744Z,8.80
2023-12-12T18:29:37.926Z,8.75
2023-12-12T18:32:13.339Z,8.81
2023-12-12T18:37:30.419Z,8.83
2023-12-12T18:40:09.636Z,8.89
2023-12-12T18:42:54.830Z,8.85
2023-12-12T18:45:27.388Z,8.82
2023-12-12T18:48:12.551Z,8.92
2023-12-12T18:50:45.872Z,8.96
2023-12-12T18:53:15.732Z,8.83
2023-12-12T18:55:54.640Z,8.86
2023-12-12T18:58:22.291Z,8.83
2023-12-12T19:00:52.455Z,8.81
2023-12-12T19:03:20.054Z,8.80
2023-12-12T19:05:56.224Z,8.75
2023-12-12T19:08:32.860Z,8.85
2023-12-12T19:11:00.049Z,8.77
2023-12-12T19:13:36.813Z,8.80
2023-12-12T19:16:05.978Z,8.87
2023-12-12T19:18:33.272Z,8.89
2023-12-12T19:21:00.851Z,8.88
2023-12-12T19:23:34.146Z,8.87
2023-12-12T19:26:01.832Z,8.87
2023-12-12T19:28:32.061Z,8.90
2023-12-12T19:30:59.611Z,8.86
2023-12-12T19:33:29.775Z,8.89
2023-12-12T19:36:17.511Z,8.86
2023-12-12T19:38:44.701Z,8.94
2023-12-12T19:41:12.092Z,8.87
2023-12-12T19:43:42.185Z,8.93
2023-12-12T19:46:13.032Z,9.02
2023-12-12T19:48:43.795Z,8.86
2023-12-12T19:51:11.014Z,8.98
2023-12-12T19:53:37.928Z,8.84
2023-12-12T19:56:11.268Z,8.90
2023-12-12T19:58:41.812Z,8.89
2023-12-12T20:01:18.926Z,8.94
2023-12-12T20:03:55.565Z,8.98
2023-12-12T20:06:28.118Z,8.89
2023-12-12T20:08:58.486Z,8.86
2023-12-12T20:11:54.593Z,8.87
2023-12-12T20:14:21.732Z,8.92
2023-12-12T20:16:56.037Z,8.81
2023-12-12T20:19:29.464Z,8.83
2023-12-12T20:22:02.649Z,8.79
2023-12-12T20:24:41.810Z,8.91
2023-12-12T20:27:48.723Z,8.86
2023-12-12T20:33:27.985Z,8.85
2023-12-12T20:35:56.663Z,8.90
2023-12-12T20:38:30.010Z,8.86
2023-12-12T20:40:57.896Z,8.91
2023-12-12T20:43:28.059Z,8.96
2023-12-12T20:45:55.342Z,8.95
2023-12-12T20:48:29.214Z,8.91
2023-12-12T20:50:56.765Z,8.91
2023-12-12T20:53:24.877Z,8.82
2023-12-12T20:56:48.774Z,8.87
2023-12-12T20:59:26.402Z,8.85
2023-12-12T21:01:53.636Z,8.90
2023-12-12T21:04:20.918Z,8.88
2023-12-12T21:07:00.593Z,8.97
2023-12-12T21:09:31.628Z,8.94
2023-12-12T21:11:59.006Z,8.84
2023-12-12T21:14:28.849Z,9.03
2023-12-12T21:16:59.406Z,9.00
2023-12-12T21:19:26.828Z,8.87
2023-12-12T21:21:54.309Z,8.84
2023-12-12T21:24:23.976Z,8.83
2023-12-12T21:26:54.160Z,8.83
2023-12-12T21:29:24.065Z,8.78
2023-12-12T21:31:51.111Z,8.78
2023-12-12T21:34:18.420Z,8.88
2023-12-12T21:36:46.586Z,8.86
2023-12-12T21:39:16.267Z,8.70
2023-12-12T21:41:46.187Z,8.76
2023-12-12T21:48:15.181Z,8.68
2023-12-12T21:51:03.301Z,8.68
2023-12-12T21:53:34.541Z,8.66
2023-12-12T21:56:11.467Z,8.69
2023-12-12T21:58:51.254Z,8.70
2023-12-12T22:01:19.540Z,8.74
2023-12-12T22:03:46.969Z,8.71
2023-12-12T22:06:14.436Z,8.83
2023-12-12T22:08:43.610Z,8.80
2023-12-12T22:11:21.678Z,8.67
2023-12-12T22:13:59.046Z,8.70
2023-12-12T22:16:29.577Z,8.72
2023-12-12T22:18:59.656Z,8.83
2023-12-12T22:21:28.515Z,8.70
2023-12-12T22:23:56.508Z,8.70
2023-12-12T22:26:24.237Z,8.68
2023-12-12T22:28:51.447Z,8.68
2023-12-12T22:31:18.467Z,8.74
2023-12-12T22:33:45.472Z,8.72
2023-12-12T22:36:20.224Z,8.71
2023-12-12T22:38:48.093Z,8.68
2023-12-12T22:41:22.542Z,8.72
2023-12-12T22:43:49.965Z,8.72
2023-12-12T22:46:22.476Z,8.69
2023-12-12T22:48:54.809Z,8.66
2023-12-12T22:51:25.012Z,8.67
2023-12-12T22:53:52.020Z,8.66
2023-12-12T22:56:46.092Z,8.73
2023-12-12T22:59:13.140Z,8.68
2023-12-12T23:01:49.800Z,8.70
2023-12-12T23:07:01.447Z,8.61
2023-12-12T23:13:01.218Z,8.50
2023-12-12T23:15:35.034Z,8.61
2023-12-12T23:18:23.571Z,8.62
2023-12-12T23:20:52.719Z,8.62
2023-12-12T23:23:21.426Z,8.59
2023-12-12T23:25:58.761Z,8.60
2023-12-12T23:28:26.500Z,8.55
2023-12-12T23:31:08.118Z,8.60
2023-12-12T23:33:57.975Z,8.58
2023-12-12T23:36:45.103Z,8.56
2023-12-12T23:39:12.379Z,8.60
2023-12-12T23:41:47.057Z,8.59
2023-12-12T23:44:17.987Z,8.61
2023-12-12T23:46:45.901Z,8.60
2023-12-12T23:49:15.236Z,8.59
2023-12-12T23:51:43.116Z,8.52
2023-12-12T23:54:10.639Z,8.50
2023-12-12T23:56:44.411Z,8.58
2023-12-12T23:59:11.497Z,8.53
